Terminal Aerodrome Forecast
Issued by NWS

Home | Current Version | Previous Version | Text Only | Print | Product List | Glossary Off
Versions: 1 2 3 4 5 6 7 8 9 10 11 12 13 14 15 16 17 18 19 20 21 22 23 24 25 26 27 28 29 30 31 32

000
FTUS45 KGGW 271700
TAFOLF
TAF
KOLF 271725Z 2718/2818 VRB03KT P6SM VCSH SCT030 BKN050
      TEMPO 2718/2722 5SM -SN SCT015 OVC030
     FM280100 03005KT 3SM -SN SCT010 OVC025
     FM280400 07007KT 1SM -SN OVC007=

USA.gov is the U.S. government's official web portal to all federal, state and local government web resources and services.